Time;durP1;ratioP1;P1;durP2;ratioP2;P2;SDS_P1;SDS_P2;PMS_P1;PMS_P2;Temp;Humidity;BMP_temperature;BMP_pressure;BME280_temperature;BME280_humidity;BME280_pressure;Samples;Min_cycle;Max_cycle;Signal;HPM_P1;HPM_P2
2023/08/13 00:01:33;;;;;;;47.07;43.97;;;21.40;99.90;;;;;;6243228;23;20722;-79
2023/08/13 00:04:02;;;;;;;49.20;45.90;;;21.30;99.90;;;;;;6244348;23;20435;-78
2023/08/13 00:06:29;;;;;;;44.13;41.10;;;21.30;99.90;;;;;;6243917;23;20442;-79
2023/08/13 00:08:56;;;;;;;45.40;42.20;;;21.30;99.90;;;;;;6244124;23;20403;-78
2023/08/13 00:11:23;;;;;;;45.63;42.23;;;21.40;99.90;;;;;;6243742;23;20410;-77
2023/08/13 00:13:52;;;;;;;45.87;42.73;;;21.40;99.90;;;;;;6242749;23;20411;-78
2023/08/13 00:16:19;;;;;;;46.40;43.40;;;21.30;99.90;;;;;;6242684;23;20411;-77
2023/08/13 00:18:46;;;;;;;49.33;45.63;;;21.40;99.90;;;;;;6242678;23;20439;-77
2023/08/13 00:21:13;;;;;;;45.87;42.43;;;21.30;99.90;;;;;;6244286;23;20412;-76
2023/08/13 00:23:40;;;;;;;45.50;42.30;;;21.40;99.90;;;;;;6244435;23;20400;-76
2023/08/13 00:26:10;;;;;;;45.07;41.97;;;21.30;99.90;;;;;;6244146;22;20482;-78
2023/08/13 00:28:40;;;;;;;45.03;41.93;;;21.40;99.90;;;;;;6244039;23;20431;-77
2023/08/13 00:31:08;;;;;;;48.40;44.93;;;21.30;99.90;;;;;;6244502;23;20404;-77
2023/08/13 00:33:36;;;;;;;50.57;47.17;;;21.20;99.90;;;;;;6243306;23;20431;-76
2023/08/13 00:36:03;;;;;;;50.40;46.90;;;21.20;99.90;;;;;;6244438;23;20731;-77
2023/08/13 00:38:30;;;;;;;46.87;43.57;;;21.20;99.90;;;;;;6243700;23;20399;-77
2023/08/13 00:40:57;;;;;;;45.27;42.27;;;21.20;99.90;;;;;;6244566;23;20404;-77
2023/08/13 00:43:26;;;;;;;44.83;41.63;;;21.10;99.90;;;;;;6244260;23;20742;-78
2023/08/13 00:45:53;;;;;;;45.60;42.60;;;21.10;99.90;;;;;;6244234;23;20444;-77
2023/08/13 00:48:24;;;;;;;44.13;41.20;;;21.00;99.90;;;;;;6244251;23;20408;-77
2023/08/13 00:50:51;;;;;;;41.90;38.90;;;21.00;99.90;;;;;;6244065;23;20735;-75
2023/08/13 00:53:21;;;;;;;45.30;41.93;;;20.90;99.90;;;;;;6244264;23;20756;-75
2023/08/13 00:55:48;;;;;;;46.10;43.10;;;20.90;99.90;;;;;;6243972;23;20461;-76
2023/08/13 00:58:15;;;;;;;43.80;40.90;;;20.90;99.90;;;;;;6244214;23;20743;-77
2023/08/13 01:00:42;;;;;;;44.90;42.10;;;20.90;99.90;;;;;;6244166;23;20486;-76
2023/08/13 01:03:12;;;;;;;45.87;42.80;;;20.80;99.90;;;;;;6244643;23;20411;-77
2023/08/13 01:05:50;;;;;;;45.43;42.50;;;20.80;99.90;;;;;;6244146;23;20522;-75
2023/08/13 01:08:24;;;;;;;48.63;45.43;;;20.80;99.90;;;;;;6244270;23;20388;-76
2023/08/13 01:10:58;;;;;;;46.33;42.70;;;20.80;99.90;;;;;;6244713;23;20393;-76
2023/08/13 01:13:34;;;;;;;49.50;46.30;;;20.80;99.90;;;;;;6244149;23;20732;-76
2023/08/13 01:16:03;;;;;;;48.40;44.90;;;20.70;99.90;;;;;;6244087;23;20390;-76
2023/08/13 01:18:34;;;;;;;43.90;41.00;;;20.70;99.90;;;;;;6243933;23;20404;-76
2023/08/13 01:21:02;;;;;;;45.13;42.23;;;20.60;99.90;;;;;;6244129;23;20836;-80
2023/08/13 01:23:30;;;;;;;50.27;46.77;;;20.60;99.90;;;;;;6243473;23;20494;-77
2023/08/13 01:26:08;;;;;;;44.63;41.63;;;20.60;99.90;;;;;;6243241;22;20447;-76
2023/08/13 01:28:43;;;;;;;45.00;41.73;;;20.60;99.90;;;;;;6243427;23;20442;-77
2023/08/13 01:31:21;;;;;;;49.70;46.10;;;20.60;99.90;;;;;;6243730;23;20698;-77
2023/08/13 01:33:50;;;;;;;44.20;41.30;;;20.50;99.90;;;;;;6243382;23;20435;-78
2023/08/13 01:36:18;;;;;;;46.07;42.87;;;20.60;99.90;;;;;;6243636;23;20397;-77
2023/08/13 01:38:58;;;;;;;43.93;40.83;;;20.50;99.90;;;;;;6243637;23;20457;-76
2023/08/13 01:41:33;;;;;;;44.10;41.30;;;20.50;99.90;;;;;;6243835;23;20392;-76
2023/08/13 01:43:59;;;;;;;44.00;41.00;;;20.50;99.90;;;;;;6243783;23;20415;-76
2023/08/13 01:46:25;;;;;;;44.10;41.30;;;20.40;99.90;;;;;;6243545;23;20943;-75
2023/08/13 01:48:52;;;;;;;41.67;38.73;;;20.40;99.90;;;;;;6243683;23;20173;-77
2023/08/13 01:51:20;;;;;;;44.77;41.60;;;20.40;99.90;;;;;;6243185;23;20494;-76
2023/08/13 01:53:48;;;;;;;45.30;42.20;;;20.40;99.90;;;;;;6243220;23;20415;-77
2023/08/13 01:56:18;;;;;;;45.80;42.67;;;20.30;99.90;;;;;;6243461;23;20458;-76
2023/08/13 01:58:45;;;;;;;42.07;39.10;;;20.30;99.90;;;;;;6243289;23;20935;-76
2023/08/13 02:01:12;;;;;;;42.47;39.67;;;20.20;99.90;;;;;;6243621;23;20407;-75
2023/08/13 02:03:40;;;;;;;43.87;40.77;;;20.20;99.90;;;;;;6243465;23;20410;-77
2023/08/13 02:06:10;;;;;;;42.33;39.63;;;20.20;99.90;;;;;;6242819;23;20439;-76
2023/08/13 02:08:36;;;;;;;42.30;39.50;;;20.20;99.90;;;;;;6243017;23;20450;-75
2023/08/13 02:11:10;;;;;;;42.47;39.67;;;20.30;99.90;;;;;;6243544;23;20411;-78
2023/08/13 02:13:37;;;;;;;41.63;38.90;;;20.30;99.90;;;;;;6243721;23;20400;-78
2023/08/13 02:16:07;;;;;;;41.43;38.63;;;20.30;99.90;;;;;;6244314;23;20428;-77
2023/08/13 02:18:34;;;;;;;44.60;41.33;;;20.30;99.90;;;;;;6244683;23;20411;-77
2023/08/13 02:21:01;;;;;;;43.60;40.37;;;20.40;99.90;;;;;;6244759;23;20404;-79
2023/08/13 02:23:28;;;;;;;45.23;42.23;;;20.40;99.90;;;;;;6243949;23;20453;-78
2023/08/13 02:26:00;;;;;;;46.50;43.40;;;20.40;99.90;;;;;;6243128;22;20486;-79
2023/08/13 02:28:28;;;;;;;48.00;44.67;;;20.40;99.90;;;;;;6242903;23;20523;-78
2023/08/13 02:30:55;;;;;;;44.47;41.30;;;20.50;99.90;;;;;;6242828;23;20420;-79
2023/08/13 02:33:22;;;;;;;44.43;41.33;;;20.50;99.90;;;;;;6243989;23;20738;-79
2023/08/13 02:35:49;;;;;;;42.90;39.80;;;20.50;99.90;;;;;;6244397;23;20934;-78
2023/08/13 02:38:16;;;;;;;43.20;40.10;;;20.50;99.90;;;;;;6244737;23;20444;-79
2023/08/13 02:40:43;;;;;;;41.90;39.10;;;20.60;99.90;;;;;;6244094;23;20422;-79
2023/08/13 02:43:09;;;;;;;45.13;41.63;;;20.60;99.90;;;;;;6243489;23;20414;-77
2023/08/13 02:45:38;;;;;;;44.30;41.27;;;20.70;99.90;;;;;;6242835;23;20404;-77
2023/08/13 02:48:05;;;;;;;44.30;41.30;;;20.70;99.90;;;;;;6243061;23;20408;-79
2023/08/13 02:50:32;;;;;;;43.30;40.40;;;20.80;99.90;;;;;;6243211;23;20404;-79
2023/08/13 02:53:02;;;;;;;45.90;42.87;;;20.80;99.90;;;;;;6242734;23;20412;-81
2023/08/13 02:55:28;;;;;;;47.13;44.13;;;20.80;99.90;;;;;;6242879;23;20412;-77
2023/08/13 02:57:58;;;;;;;48.60;45.10;;;20.70;99.90;;;;;;6243089;23;20410;-77
2023/08/13 03:00:25;;;;;;;45.20;41.93;;;20.60;99.90;;;;;;6243553;23;20411;-79
2023/08/13 03:02:54;;;;;;;41.37;38.77;;;20.50;99.90;;;;;;6242547;23;20414;-77
2023/08/13 03:05:20;;;;;;;42.00;39.13;;;20.50;99.90;;;;;;6243001;23;20425;-80
2023/08/13 03:07:47;;;;;;;42.53;39.60;;;20.40;99.90;;;;;;6243167;23;20440;-79
2023/08/13 03:10:14;;;;;;;42.83;40.03;;;20.40;99.90;;;;;;6243231;23;20424;-80
2023/08/13 03:12:41;;;;;;;43.63;40.53;;;20.40;99.90;;;;;;6243028;23;20768;-78
2023/08/13 03:15:09;;;;;;;46.60;43.00;;;20.40;99.90;;;;;;6242665;23;20404;-79
2023/08/13 03:17:36;;;;;;;46.63;43.47;;;20.50;99.90;;;;;;6242564;23;20408;-80
2023/08/13 03:20:05;;;;;;;44.60;41.13;;;20.60;99.90;;;;;;6242928;23;20491;-75
2023/08/13 03:22:32;;;;;;;47.03;43.90;;;20.60;99.90;;;;;;6242986;23;20443;-80
2023/08/13 03:24:59;;;;;;;45.13;41.97;;;20.60;99.90;;;;;;6244462;22;20458;-79
2023/08/13 03:27:25;;;;;;;46.57;43.17;;;20.60;99.90;;;;;;6243608;23;20511;-81
2023/08/13 03:29:52;;;;;;;48.27;45.07;;;20.60;99.90;;;;;;6244325;23;20428;-79
2023/08/13 03:32:19;;;;;;;46.70;43.07;;;20.60;99.90;;;;;;6243938;23;20487;-78
2023/08/13 03:34:46;;;;;;;47.20;43.67;;;20.60;99.90;;;;;;6244549;23;20410;-79
2023/08/13 03:37:14;;;;;;;44.03;40.93;;;20.60;99.90;;;;;;6243751;23;20743;-78
2023/08/13 03:39:44;;;;;;;45.20;42.10;;;20.70;99.90;;;;;;6243496;23;20410;-80
2023/08/13 03:42:11;;;;;;;47.60;44.13;;;20.80;99.90;;;;;;6243013;23;20404;-79
2023/08/13 03:44:41;;;;;;;46.33;43.20;;;20.80;99.90;;;;;;6243997;23;20503;-79
2023/08/13 03:47:08;;;;;;;46.53;43.43;;;20.80;99.90;;;;;;6244016;23;20432;-79
2023/08/13 03:49:42;;;;;;;45.30;42.30;;;20.70;99.90;;;;;;6243740;23;20443;-78
2023/08/13 03:52:10;;;;;;;46.50;43.40;;;20.80;99.90;;;;;;6244319;23;20388;-78
2023/08/13 03:54:38;;;;;;;50.73;47.20;;;20.80;99.90;;;;;;6244932;23;20411;-79
2023/08/13 03:57:07;;;;;;;49.80;46.50;;;20.80;99.90;;;;;;6246204;23;20395;-78
2023/08/13 03:59:34;;;;;;;49.30;45.90;;;20.80;99.90;;;;;;6246163;23;20418;-79
2023/08/13 04:02:01;;;;;;;46.07;43.07;;;20.80;99.90;;;;;;6245307;23;20407;-78
2023/08/13 04:04:28;;;;;;;47.40;44.40;;;20.90;99.90;;;;;;6246488;23;20483;-79
2023/08/13 04:06:55;;;;;;;48.00;44.93;;;21.00;99.90;;;;;;6245922;23;20517;-81
2023/08/13 04:09:24;;;;;;;46.53;43.43;;;20.90;99.90;;;;;;6245966;23;20758;-81
2023/08/13 04:11:55;;;;;;;44.50;41.60;;;21.00;99.90;;;;;;6246074;23;20408;-80
2023/08/13 04:14:22;;;;;;;47.30;44.00;;;21.00;99.90;;;;;;6246574;23;20388;-81
2023/08/13 04:16:49;;;;;;;47.80;44.00;;;21.00;99.90;;;;;;6245919;23;20407;-79
2023/08/13 04:19:26;;;;;;;44.00;41.30;;;21.10;99.90;;;;;;6246006;23;20430;-81
2023/08/13 04:21:53;;;;;;;41.93;39.23;;;21.10;99.90;;;;;;6245956;23;20396;-80
2023/08/13 04:24:20;;;;;;;43.10;40.20;;;21.00;99.90;;;;;;6246111;22;20408;-79
2023/08/13 04:26:46;;;;;;;38.33;36.00;;;20.90;99.90;;;;;;6246148;23;20944;-81
2023/08/13 04:29:20;;;;;;;40.97;38.20;;;20.80;99.90;;;;;;6246046;23;20423;-80
2023/08/13 04:31:47;;;;;;;37.13;35.00;;;20.80;99.90;;;;;;6246181;23;20388;-79
2023/08/13 04:34:13;;;;;;;38.27;35.87;;;20.80;99.90;;;;;;6244409;23;20404;-79
2023/08/13 04:36:40;;;;;;;38.10;35.70;;;20.70;99.90;;;;;;6244549;23;20419;-81
2023/08/13 04:39:07;;;;;;;37.87;35.27;;;20.80;99.90;;;;;;6243858;23;20430;-81
2023/08/13 04:41:34;;;;;;;35.87;33.50;;;20.80;99.90;;;;;;6244352;23;20723;-82
2023/08/13 04:44:01;;;;;;;37.87;35.47;;;20.80;99.90;;;;;;6244288;23;21138;-82
2023/08/13 04:46:31;;;;;;;36.47;34.20;;;20.90;99.90;;;;;;6244276;23;20939;-82
2023/08/13 04:48:58;;;;;;;39.20;36.60;;;20.90;99.90;;;;;;6244409;23;20403;-82
2023/08/13 04:51:27;;;;;;;35.93;33.50;;;20.90;99.90;;;;;;6244420;23;20458;-81
2023/08/13 04:53:54;;;;;;;36.50;34.17;;;21.00;99.90;;;;;;6242626;23;20743;-84
2023/08/13 04:56:21;;;;;;;35.90;33.50;;;21.00;99.90;;;;;;6244340;23;20408;-82
2023/08/13 04:58:48;;;;;;;36.23;33.83;;;21.00;99.90;;;;;;6243815;23;20404;-82
2023/08/13 05:01:14;;;;;;;34.70;32.37;;;21.10;99.90;;;;;;6231064;23;20779;-79
2023/08/13 05:03:44;;;;;;;32.83;30.93;;;21.30;99.90;;;;;;6243847;23;20403;-83
2023/08/13 05:06:19;;;;;;;35.13;32.70;;;21.20;99.90;;;;;;6245272;23;20412;-79
2023/08/13 05:08:46;;;;;;;34.13;31.97;;;21.20;99.90;;;;;;6244373;23;20384;-82
2023/08/13 05:11:13;;;;;;;33.47;31.37;;;21.20;99.90;;;;;;6245265;23;20430;-85
2023/08/13 05:13:45;;;;;;;41.40;38.77;;;21.10;99.90;;;;;;6242800;23;20440;-74
2023/08/13 05:16:14;;;;;;;48.50;45.00;;;21.10;99.90;;;;;;6241962;23;20388;-74
2023/08/13 05:18:45;;;;;;;48.00;44.40;;;21.00;99.90;;;;;;6242557;23;20515;-74
2023/08/13 05:21:12;;;;;;;47.13;43.83;;;20.90;99.90;;;;;;6243590;23;20415;-74
2023/08/13 05:23:39;;;;;;;47.37;44.07;;;20.90;99.90;;;;;;6243433;23;20404;-76
2023/08/13 05:26:06;;;;;;;46.70;43.30;;;20.80;99.90;;;;;;6242560;22;20960;-75
2023/08/13 05:28:33;;;;;;;50.27;46.67;;;20.80;99.90;;;;;;6242430;23;20545;-75
2023/08/13 05:31:03;;;;;;;48.33;45.00;;;20.80;99.90;;;;;;6243515;23;20408;-76
2023/08/13 05:33:30;;;;;;;49.50;45.93;;;20.90;99.90;;;;;;6241976;23;20992;-76
2023/08/13 05:35:58;;;;;;;52.83;49.17;;;20.80;99.90;;;;;;6241764;23;20895;-75
2023/08/13 05:38:26;;;;;;;48.20;44.67;;;20.90;99.90;;;;;;6242797;23;20408;-77
2023/08/13 05:40:53;;;;;;;50.40;46.43;;;20.90;99.90;;;;;;6243553;23;20404;-77
2023/08/13 05:43:20;;;;;;;57.07;52.83;;;20.90;99.90;;;;;;6243404;23;20404;-75
2023/08/13 05:45:46;;;;;;;48.37;44.93;;;20.90;99.90;;;;;;6242292;23;20777;-73
2023/08/13 05:48:13;;;;;;;48.23;45.03;;;20.90;99.90;;;;;;6243071;23;20439;-73
2023/08/13 05:50:40;;;;;;;49.10;45.70;;;20.90;99.90;;;;;;6243522;23;20408;-74
2023/08/13 05:53:08;;;;;;;51.33;47.83;;;20.80;99.90;;;;;;6244214;23;20435;-74
2023/08/13 05:55:35;;;;;;;48.47;44.97;;;20.80;99.90;;;;;;6243678;23;20729;-75
2023/08/13 05:58:02;;;;;;;44.20;40.90;;;20.80;99.90;;;;;;6242398;23;20443;-75
2023/08/13 06:00:30;;;;;;;44.60;41.50;;;20.80;99.90;;;;;;6241967;23;20412;-75
2023/08/13 06:02:57;;;;;;;50.00;46.50;;;20.90;99.90;;;;;;6240019;23;20481;-74
2023/08/13 06:05:24;;;;;;;44.90;41.80;;;21.00;99.90;;;;;;6243687;23;20408;-74
2023/08/13 06:07:51;;;;;;;46.23;43.13;;;21.00;99.90;;;;;;6243325;23;20439;-75
2023/08/13 06:10:19;;;;;;;45.67;42.63;;;21.10;99.90;;;;;;6243034;23;20408;-75
2023/08/13 06:12:46;;;;;;;46.13;43.13;;;21.00;99.90;;;;;;6243225;23;20435;-74
2023/08/13 06:15:13;;;;;;;49.67;46.40;;;21.10;99.90;;;;;;6243253;23;20412;-74
2023/08/13 06:17:42;;;;;;;46.77;43.80;;;21.10;99.90;;;;;;6242798;23;20404;-74
2023/08/13 06:20:11;;;;;;;48.17;45.10;;;21.20;99.90;;;;;;6242803;23;20411;-76
2023/08/13 06:22:38;;;;;;;45.93;42.93;;;21.10;99.90;;;;;;6242709;23;20422;-74
2023/08/13 06:25:11;;;;;;;46.60;43.50;;;21.10;99.90;;;;;;6242966;22;20530;-74
2023/08/13 06:27:41;;;;;;;48.03;44.80;;;21.10;99.90;;;;;;6242666;23;20504;-74
2023/08/13 06:30:12;;;;;;;47.40;44.10;;;21.20;99.90;;;;;;6241409;23;20919;-75
2023/08/13 06:32:39;;;;;;;44.67;41.87;;;21.20;99.90;;;;;;6241960;23;20423;-74
2023/08/13 06:35:06;;;;;;;48.07;44.97;;;21.20;99.90;;;;;;6242744;23;20410;-75
2023/08/13 06:37:33;;;;;;;48.43;45.17;;;21.10;99.90;;;;;;6242269;23;20400;-76
2023/08/13 06:40:00;;;;;;;46.50;43.40;;;21.10;99.90;;;;;;6242222;23;20407;-75
2023/08/13 06:42:27;;;;;;;43.43;40.43;;;21.10;99.90;;;;;;6242319;23;20408;-76
2023/08/13 06:44:55;;;;;;;46.17;43.07;;;21.20;99.90;;;;;;6242727;23;20899;-75
2023/08/13 06:47:21;;;;;;;46.33;43.23;;;21.30;99.90;;;;;;6242715;23;20526;-73
2023/08/13 06:49:53;;;;;;;46.67;43.63;;;21.40;99.90;;;;;;6242954;23;20407;-76
2023/08/13 06:52:20;;;;;;;43.60;40.60;;;21.50;99.90;;;;;;6240692;23;20467;-75
2023/08/13 06:54:46;;;;;;;43.93;40.93;;;21.50;99.90;;;;;;6241949;23;20474;-76
2023/08/13 06:57:13;;;;;;;43.10;40.10;;;21.50;99.90;;;;;;6241913;23;20404;-75
2023/08/13 06:59:41;;;;;;;43.43;40.50;;;21.40;99.90;;;;;;6242281;23;20403;-72
2023/08/13 07:02:08;;;;;;;44.33;41.43;;;21.30;99.90;;;;;;6235531;23;20478;-75
2023/08/13 07:04:35;;;;;;;44.73;41.73;;;21.30;99.90;;;;;;6241922;23;20408;-74
2023/08/13 07:07:02;;;;;;;46.33;43.40;;;21.30;99.90;;;;;;6242346;23;20404;-74
2023/08/13 07:09:35;;;;;;;44.33;41.43;;;21.20;99.90;;;;;;6242366;23;20404;-74
2023/08/13 07:12:08;;;;;;;46.53;43.33;;;21.30;99.90;;;;;;6243078;23;20428;-75
2023/08/13 07:14:35;;;;;;;44.10;41.27;;;21.40;99.90;;;;;;6242546;23;20392;-74
2023/08/13 07:17:01;;;;;;;44.33;41.37;;;21.40;99.90;;;;;;6242831;23;20447;-75
2023/08/13 07:19:33;;;;;;;42.93;40.10;;;21.50;99.90;;;;;;6242995;23;20415;-74
2023/08/13 07:22:00;;;;;;;43.00;40.27;;;21.60;99.90;;;;;;6242196;23;20994;-73
2023/08/13 07:24:28;;;;;;;41.80;39.20;;;21.70;99.90;;;;;;6242506;22;20408;-75
2023/08/13 07:26:57;;;;;;;45.60;42.50;;;21.60;99.90;;;;;;6241694;23;20431;-75
2023/08/13 07:29:27;;;;;;;45.63;42.83;;;21.70;99.90;;;;;;6243600;23;20418;-74
2023/08/13 07:31:54;;;;;;;43.73;41.03;;;21.90;99.90;;;;;;6244135;23;20926;-74
2023/08/13 07:34:21;;;;;;;40.90;38.20;;;22.10;99.90;;;;;;6244294;23;20411;-73
2023/08/13 07:36:49;;;;;;;43.87;41.17;;;22.10;99.90;;;;;;6244629;23;20408;-74
2023/08/13 07:39:16;;;;;;;44.57;41.63;;;22.20;99.90;;;;;;6244206;23;20396;-72
2023/08/13 07:41:43;;;;;;;44.93;42.37;;;22.40;99.90;;;;;;6244539;23;20416;-71
2023/08/13 07:44:10;;;;;;;43.30;40.70;;;22.30;99.90;;;;;;6244621;23;20410;-73
2023/08/13 07:46:37;;;;;;;42.63;39.83;;;22.10;99.90;;;;;;6244192;23;20416;-73
2023/08/13 07:49:04;;;;;;;40.90;38.60;;;22.00;99.90;;;;;;6244716;23;20447;-75
2023/08/13 07:51:33;;;;;;;40.27;37.87;;;22.00;99.90;;;;;;6245013;23;20892;-73
2023/08/13 07:54:03;;;;;;;39.70;37.40;;;22.00;99.90;;;;;;6245269;23;20454;-72
2023/08/13 07:56:30;;;;;;;36.70;34.80;;;22.00;99.90;;;;;;6244829;23;20856;-73
2023/08/13 07:58:57;;;;;;;36.67;34.73;;;22.10;99.90;;;;;;6245104;23;20680;-73
2023/08/13 08:01:28;;;;;;;37.07;35.03;;;22.10;99.90;;;;;;6244864;23;20400;-73
2023/08/13 08:03:55;;;;;;;35.77;33.77;;;22.50;99.90;;;;;;6245032;23;20444;-74
2023/08/13 08:06:22;;;;;;;28.80;27.20;;;23.00;99.90;;;;;;6244517;23;20407;-74
2023/08/13 08:08:52;;;;;;;24.03;22.83;;;23.50;99.90;;;;;;6244809;23;20635;-78
2023/08/13 08:11:20;;;;;;;21.13;20.23;;;24.20;99.90;;;;;;6244421;23;20507;-77
2023/08/13 08:13:48;;;;;;;21.07;19.90;;;24.80;99.90;;;;;;6244756;23;20415;-81
2023/08/13 08:16:15;;;;;;;20.27;19.27;;;25.10;99.90;;;;;;6241449;23;20418;-78
2023/08/13 08:18:42;;;;;;;18.07;17.27;;;25.10;99.90;;;;;;6243479;23;20410;-76
2023/08/13 08:21:17;;;;;;;18.90;17.83;;;25.30;99.90;;;;;;6244865;23;20703;-77
2023/08/13 08:23:49;;;;;;;17.80;16.93;;;25.80;99.90;;;;;;6237853;23;20939;-76
2023/08/13 08:26:20;;;;;;;17.80;16.90;;;26.40;99.90;;;;;;6244283;22;20419;-77
2023/08/13 08:28:48;;;;;;;18.90;18.10;;;26.50;99.90;;;;;;6245472;23;20669;-77
2023/08/13 08:31:17;;;;;;;18.77;17.87;;;26.70;99.90;;;;;;6244866;22;20787;-77
2023/08/13 08:33:50;;;;;;;18.30;17.50;;;26.50;99.90;;;;;;6244553;23;20916;-77
2023/08/13 08:36:16;;;;;;;18.50;17.70;;;26.60;99.90;;;;;;6245142;23;20725;-76
2023/08/13 08:38:46;;;;;;;18.20;17.40;;;26.90;99.90;;;;;;6244536;23;20400;-76
2023/08/13 08:41:13;;;;;;;19.17;18.27;;;27.00;99.90;;;;;;6244173;23;20400;-76
2023/08/13 08:43:42;;;;;;;16.87;16.07;;;27.40;99.90;;;;;;6244753;22;20462;-75
2023/08/13 08:46:12;;;;;;;16.43;15.57;;;27.80;99.90;;;;;;6243981;23;20407;-75
2023/08/13 08:48:41;;;;;;;16.43;15.63;;;27.90;99.90;;;;;;6244192;23;20439;-75
2023/08/13 08:51:08;;;;;;;16.37;15.63;;;28.10;99.90;;;;;;6243955;23;20910;-75
2023/08/13 08:53:41;;;;;;;16.70;15.90;;;27.80;99.90;;;;;;6244544;22;20404;-75
2023/08/13 08:56:08;;;;;;;17.30;16.60;;;27.30;99.90;;;;;;6244446;23;20876;-75
2023/08/13 08:58:34;;;;;;;17.93;17.23;;;27.20;99.90;;;;;;6244210;23;20404;-76
2023/08/13 09:01:02;;;;;;;17.27;16.57;;;27.50;99.90;;;;;;6244148;23;20771;-77
2023/08/13 09:03:31;;;;;;;19.00;18.00;;;28.20;99.90;;;;;;6244204;23;20411;-76
2023/08/13 09:06:02;;;;;;;16.00;15.40;;;28.80;99.90;;;;;;6244108;23;20733;-77
2023/08/13 09:08:31;;;;;;;16.10;15.30;;;28.70;99.90;;;;;;6243969;23;20435;-78
2023/08/13 09:11:03;;;;;;;15.70;15.10;;;28.50;99.90;;;;;;6244208;23;20416;-77
2023/08/13 09:13:34;;;;;;;16.63;15.83;;;28.90;99.90;;;;;;6244347;23;20448;-79
2023/08/13 09:16:04;;;;;;;14.93;14.33;;;28.90;99.90;;;;;;6243426;23;20411;-79
2023/08/13 09:18:39;;;;;;;14.73;14.03;;;29.70;99.90;;;;;;6244181;23;20400;-79
2023/08/13 09:21:06;;;;;;;14.00;13.50;;;29.90;99.90;;;;;;6244682;22;20922;-79
2023/08/13 09:23:32;;;;;;;14.20;13.70;;;30.30;99.90;;;;;;6243826;23;20446;-79
2023/08/13 09:26:05;;;;;;;14.03;13.43;;;30.80;99.90;;;;;;6243980;22;20428;-80
2023/08/13 09:28:32;;;;;;;15.53;14.87;;;31.80;99.90;;;;;;6243511;23;20448;-80
2023/08/13 09:31:02;;;;;;;15.10;14.60;;;32.00;99.90;;;;;;6243941;23;20408;-80
2023/08/13 09:33:36;;;;;;;16.33;15.73;;;32.70;99.90;;;;;;6243256;23;20434;-83
2023/08/13 09:36:02;;;;;;;15.00;14.40;;;34.00;97.10;;;;;;6244132;23;20416;-85
2023/08/13 09:38:37;;;;;;;15.03;14.40;;;34.00;96.10;;;;;;6246527;23;20400;-81
2023/08/13 09:41:05;;;;;;;14.53;13.93;;;34.30;95.40;;;;;;6245975;23;20407;-84
2023/08/13 09:43:33;;;;;;;15.77;15.10;;;34.90;95.30;;;;;;6246791;23;20406;-87
2023/08/13 09:46:01;;;;;;;15.40;14.60;;;34.70;94.50;;;;;;6249971;23;20418;-87
2023/08/13 09:48:36;;;;;;;14.87;14.27;;;34.40;94.10;;;;;;6247070;23;20450;-87
2023/08/13 09:51:04;;;;;;;15.03;14.23;;;34.30;95.20;;;;;;6246736;23;20753;-86
2023/08/13 09:53:32;;;;;;;15.77;15.17;;;34.60;95.20;;;;;;6244166;23;20697;-84
2023/08/13 09:56:03;;;;;;;14.60;14.03;;;35.20;94.40;;;;;;6244634;23;20408;-86
2023/08/13 09:58:31;;;;;;;16.23;15.30;;;35.90;92.00;;;;;;6245108;23;20384;-86
2023/08/13 10:00:58;;;;;;;15.90;15.30;;;36.10;91.40;;;;;;6244599;23;20415;-86
2023/08/13 10:03:26;;;;;;;15.23;14.53;;;36.10;90.20;;;;;;6242755;23;20415;-85
2023/08/13 10:05:58;;;;;;;14.33;13.83;;;34.40;91.60;;;;;;6244151;23;20410;-86
2023/08/13 10:08:34;;;;;;;14.60;14.00;;;34.20;92.60;;;;;;6243832;23;20424;-85
2023/08/13 10:11:01;;;;;;;15.13;14.43;;;34.70;92.00;;;;;;6244212;23;20392;-85
2023/08/13 10:13:30;;;;;;;15.40;14.90;;;35.20;91.70;;;;;;6244153;23;20407;-83
2023/08/13 10:15:59;;;;;;;15.93;15.23;;;35.70;90.90;;;;;;6243146;23;20896;-83
2023/08/13 10:18:28;;;;;;;14.33;13.73;;;36.40;89.70;;;;;;6243232;23;20402;-81
2023/08/13 10:20:56;;;;;;;15.67;15.17;;;36.30;89.00;;;;;;6243660;23;20408;-81
2023/08/13 10:23:23;;;;;;;16.37;15.63;;;36.00;90.10;;;;;;6243222;23;20475;-80
2023/08/13 10:25:53;;;;;;;16.03;15.30;;;35.40;90.80;;;;;;6242962;22;20932;-80
2023/08/13 10:28:21;;;;;;;15.83;15.23;;;35.40;91.00;;;;;;6245074;23;20447;-81
2023/08/13 10:30:48;;;;;;;15.30;14.70;;;36.10;90.10;;;;;;6244921;23;20412;-80
2023/08/13 10:33:15;;;;;;;16.53;15.93;;;35.80;87.60;;;;;;6244299;23;20965;-80
2023/08/13 10:35:45;;;;;;;16.50;15.80;;;35.30;90.20;;;;;;6245369;23;20659;-80
2023/08/13 10:38:16;;;;;;;15.60;15.00;;;35.90;88.50;;;;;;6245373;23;20400;-80
2023/08/13 10:40:59;;;;;;;16.63;16.03;;;37.10;85.50;;;;;;6245130;23;20393;-79
2023/08/13 10:43:26;;;;;;;16.20;15.60;;;38.10;81.70;;;;;;6244391;23;20388;-79
2023/08/13 10:45:52;;;;;;;16.50;15.80;;;37.80;82.50;;;;;;6244257;23;20404;-78
2023/08/13 10:48:27;;;;;;;15.53;14.90;;;37.80;82.20;;;;;;6243576;23;20440;-78
2023/08/13 10:50:58;;;;;;;18.80;18.00;;;37.50;82.70;;;;;;6243915;23;20391;-77
2023/08/13 10:53:28;;;;;;;16.00;15.40;;;37.10;84.10;;;;;;6243516;23;20437;-78
2023/08/13 10:55:59;;;;;;;15.60;15.00;;;36.90;85.20;;;;;;6243806;23;20400;-77
2023/08/13 10:58:30;;;;;;;17.30;16.57;;;36.20;85.60;;;;;;6243933;23;20410;-77
2023/08/13 11:01:13;;;;;;;15.63;15.03;;;34.90;90.20;;;;;;6243474;23;20429;-77
2023/08/13 11:03:45;;;;;;;16.57;15.97;;;34.30;90.80;;;;;;6243508;23;20400;-77
2023/08/13 11:06:12;;;;;;;16.07;15.37;;;33.50;92.00;;;;;;6243739;23;20391;-76
2023/08/13 11:08:42;;;;;;;16.40;15.70;;;32.80;93.70;;;;;;6243780;23;20493;-76
2023/08/13 11:11:10;;;;;;;16.47;15.57;;;32.70;94.40;;;;;;6242908;23;21010;-76
2023/08/13 11:13:37;;;;;;;15.67;14.93;;;32.20;94.60;;;;;;6243436;23;20723;-76
2023/08/13 11:16:06;;;;;;;15.60;14.90;;;32.50;94.90;;;;;;6243604;23;20427;-78
2023/08/13 11:18:33;;;;;;;16.27;15.47;;;32.90;95.10;;;;;;6242690;23;20395;-76
2023/08/13 11:21:02;;;;;;;16.67;15.87;;;33.60;92.80;;;;;;6243010;23;20407;-75
2023/08/13 11:23:29;;;;;;;17.37;16.67;;;33.70;92.80;;;;;;6243092;23;20408;-75
2023/08/13 11:25:58;;;;;;;18.20;17.40;;;33.40;94.10;;;;;;6243111;22;20431;-75
2023/08/13 11:28:26;;;;;;;15.97;15.27;;;32.90;94.40;;;;;;6242606;23;20446;-75
2023/08/13 11:30:54;;;;;;;16.07;15.27;;;32.60;95.30;;;;;;6242830;23;20943;-75
2023/08/13 11:33:21;;;;;;;16.13;15.53;;;32.80;95.30;;;;;;6242949;23;20411;-74
2023/08/13 11:35:48;;;;;;;15.60;15.00;;;33.60;93.40;;;;;;6242867;23;20400;-74
2023/08/13 11:38:16;;;;;;;16.80;15.90;;;33.60;92.90;;;;;;6242770;23;20896;-75
2023/08/13 11:40:43;;;;;;;15.23;14.53;;;33.10;94.80;;;;;;6242621;23;20404;-75
2023/08/13 11:43:14;;;;;;;16.30;15.43;;;33.30;95.00;;;;;;6242425;23;20436;-75
2023/08/13 11:45:43;;;;;;;15.47;14.87;;;35.00;92.20;;;;;;6242634;23;20388;-75
2023/08/13 11:48:17;;;;;;;16.23;15.53;;;37.30;86.90;;;;;;6242793;23;20485;-75
2023/08/13 11:50:51;;;;;;;18.20;17.30;;;38.00;83.70;;;;;;6242845;23;20384;-75
2023/08/13 11:53:20;;;;;;;18.00;17.20;;;37.80;80.90;;;;;;6243129;23;20384;-75
2023/08/13 11:55:47;;;;;;;17.57;16.80;;;37.40;79.90;;;;;;6242731;23;20442;-76
2023/08/13 11:58:20;;;;;;;17.00;16.30;;;35.50;88.10;;;;;;6243067;23;20404;-75
2023/08/13 12:00:48;;;;;;;15.97;15.37;;;35.30;90.20;;;;;;6243081;23;20395;-75
2023/08/13 12:03:15;;;;;;;16.17;15.37;;;34.80;90.30;;;;;;6242918;23;20954;-75
2023/08/13 12:05:42;;;;;;;17.37;16.43;;;34.70;90.90;;;;;;6243284;23;20875;-75
2023/08/13 12:08:13;;;;;;;15.27;14.60;;;34.50;91.60;;;;;;6242793;23;20458;-75
2023/08/13 12:10:41;;;;;;;14.97;14.37;;;33.50;93.90;;;;;;6243063;23;20818;-75
2023/08/13 12:13:08;;;;;;;14.80;14.10;;;32.90;95.40;;;;;;6242931;23;20525;-77
2023/08/13 12:15:37;;;;;;;14.67;14.03;;;31.70;99.00;;;;;;6243415;23;20446;-76
2023/08/13 12:18:04;;;;;;;14.80;14.10;;;31.80;99.50;;;;;;6244743;23;20404;-75
2023/08/13 12:20:33;;;;;;;15.37;14.67;;;31.80;98.70;;;;;;6243868;23;20408;-75
2023/08/13 12:23:00;;;;;;;16.63;15.93;;;32.60;98.20;;;;;;6244700;23;20892;-76
2023/08/13 12:25:28;;;;;;;16.47;15.77;;;32.50;98.00;;;;;;6244411;22;20435;-74
2023/08/13 12:27:56;;;;;;;16.60;15.90;;;31.60;99.00;;;;;;6244383;23;20474;-75
2023/08/13 12:30:25;;;;;;;16.47;15.77;;;32.10;99.30;;;;;;6244396;23;20444;-75
2023/08/13 12:32:53;;;;;;;15.90;15.20;;;32.50;98.00;;;;;;6244608;23;20482;-75
2023/08/13 12:35:21;;;;;;;15.60;14.90;;;32.50;97.90;;;;;;6244818;23;20426;-79